createdAt,value
2017-11-26T00:00:00.891Z,9.02
2017-11-26T00:02:28.628Z,5.25
2017-11-26T00:04:55.216Z,10.07
2017-11-26T00:07:21.043Z,8.50
2017-11-26T00:09:47.253Z,5.50
2017-11-26T00:12:14.061Z,7.30
2017-11-26T00:14:41.592Z,6.60
2017-11-26T00:17:09.612Z,4.20
2017-11-26T00:19:35.417Z,4.90
2017-11-26T00:22:03.493Z,9.60
2017-11-26T00:24:31.520Z,6.62
2017-11-26T00:26:59.256Z,6.68
2017-11-26T00:29:25.695Z,3.85
2017-11-26T00:31:52.334Z,9.25
2017-11-26T00:34:18.654Z,8.52
2017-11-26T00:36:48.429Z,5.40
2017-11-26T00:39:14.907Z,11.95
2017-11-26T00:41:47.805Z,11.40
2017-11-26T00:44:13.613Z,6.05
2017-11-26T00:46:39.455Z,7.83
2017-11-26T00:49:06.009Z,5.53
2017-11-26T00:51:32.466Z,3.25
2017-11-26T00:54:01.347Z,9.35
2017-11-26T00:56:27.773Z,7.35
2017-11-26T00:58:54.865Z,8.10
2017-11-26T01:01:21.600Z,9.30
2017-11-26T01:03:52.134Z,5.22
2017-11-26T01:08:52.304Z,7.72
2017-11-26T01:11:21.342Z,12.15
2017-11-26T01:13:48.812Z,5.15
2017-11-26T01:16:23.004Z,5.53
2017-11-26T01:18:49.308Z,7.68
2017-11-26T01:21:17.505Z,8.70
2017-11-26T01:23:43.318Z,15.02
2017-11-26T01:26:10.861Z,18.83
2017-11-26T01:28:41.395Z,11.00
2017-11-26T01:31:07.849Z,12.77
2017-11-26T01:33:34.538Z,7.95
2017-11-26T01:36:03.569Z,6.50
2017-11-26T01:38:29.373Z,15.65
2017-11-26T01:40:56.290Z,11.57
2017-11-26T01:43:28.068Z,13.30
2017-11-26T01:45:54.666Z,11.75
2017-11-26T01:48:20.495Z,14.40
2017-11-26T01:50:48.394Z,16.33
2017-11-26T01:53:14.936Z,17.45
2017-11-26T01:55:42.409Z,11.07
2017-11-26T01:58:08.874Z,11.38
2017-11-26T02:00:46.580Z,15.90
2017-11-26T02:03:14.831Z,16.00
2017-11-26T02:05:42.432Z,12.37
2017-11-26T02:08:08.258Z,13.62
2017-11-26T02:10:36.321Z,16.70
2017-11-26T02:13:04.577Z,12.10
2017-11-26T02:15:31.717Z,25.25
2017-11-26T02:18:01.142Z,13.70
2017-11-26T02:20:28.161Z,10.05
2017-11-26T02:22:54.761Z,22.65
2017-11-26T02:25:23.226Z,28.48
2017-11-26T02:27:51.702Z,14.15
2017-11-26T02:30:17.539Z,25.25
2017-11-26T02:32:55.889Z,8.43
2017-11-26T02:35:34.650Z,18.00
2017-11-26T02:38:03.443Z,11.23
2017-11-26T02:40:29.799Z,19.85
2017-11-26T02:45:28.353Z,16.80
2017-11-26T02:47:54.185Z,17.67
2017-11-26T02:50:19.997Z,20.43
2017-11-26T02:52:45.885Z,23.67
2017-11-26T02:55:11.713Z,25.33
2017-11-26T02:57:37.514Z,15.97
2017-11-26T03:00:03.597Z,20.27
2017-11-26T03:02:30.099Z,21.60
2017-11-26T03:04:55.888Z,9.88
2017-11-26T03:07:22.586Z,18.90
2017-11-26T03:09:48.394Z,24.83
2017-11-26T03:12:14.188Z,23.43
2017-11-26T03:14:39.988Z,25.50
2017-11-26T03:17:05.807Z,12.33
2017-11-26T03:19:32.708Z,30.20
2017-11-26T03:21:58.535Z,15.25
2017-11-26T03:24:24.365Z,26.17
2017-11-26T03:26:50.219Z,22.37
2017-11-26T03:29:16.043Z,20.73
2017-11-26T03:31:42.707Z,23.37
2017-11-26T03:34:08.943Z,28.30
2017-11-26T03:36:34.957Z,42.60
2017-11-26T03:39:00.769Z,14.70
2017-11-26T03:41:26.672Z,10.93
2017-11-26T03:43:53.068Z,13.50
2017-11-26T03:46:18.869Z,14.83
2017-11-26T03:48:44.972Z,18.27
2017-11-26T03:51:10.768Z,36.50
2017-11-26T03:53:36.548Z,14.13
2017-11-26T03:56:02.739Z,17.47
2017-11-26T03:58:28.528Z,14.43
2017-11-26T04:00:54.357Z,20.30
2017-11-26T04:03:20.159Z,21.03
2017-11-26T04:05:45.968Z,9.00
2017-11-26T04:08:11.747Z,18.80
2017-11-26T04:10:37.570Z,21.43
2017-11-26T04:13:03.377Z,18.20
2017-11-26T04:15:29.182Z,19.70
2017-11-26T04:17:55.039Z,23.00
2017-11-26T04:20:20.846Z,25.60
2017-11-26T04:22:46.646Z,14.70
2017-11-26T04:25:12.471Z,20.50
2017-11-26T04:27:38.288Z,18.37
2017-11-26T04:30:04.117Z,22.50
2017-11-26T04:32:30.322Z,25.23
2017-11-26T04:34:56.095Z,15.77
2017-11-26T04:37:21.889Z,18.23
2017-11-26T04:39:47.707Z,20.33
2017-11-26T04:42:13.508Z,14.10
2017-11-26T04:44:39.300Z,15.47
2017-11-26T04:47:05.126Z,14.10
2017-11-26T04:49:30.925Z,13.13
2017-11-26T04:51:56.728Z,25.23
2017-11-26T04:54:22.526Z,6.07
2017-11-26T04:56:48.307Z,18.87
2017-11-26T04:59:14.435Z,15.63
2017-11-26T05:01:40.254Z,21.65
2017-11-26T05:04:06.067Z,27.03
2017-11-26T05:06:31.877Z,20.00
2017-11-26T05:08:57.681Z,26.43
2017-11-26T05:11:23.482Z,26.23
2017-11-26T05:13:49.320Z,17.13
2017-11-26T05:16:15.110Z,24.70
2017-11-26T05:18:40.905Z,23.70
2017-11-26T05:21:06.988Z,29.10
2017-11-26T05:23:32.810Z,26.98
2017-11-26T05:25:58.617Z,19.20
2017-11-26T05:28:24.416Z,31.03
2017-11-26T05:30:50.208Z,18.90
2017-11-26T05:33:16.013Z,28.83
2017-11-26T05:35:41.824Z,25.27
2017-11-26T05:38:08.059Z,20.17
2017-11-26T05:40:34.159Z,5.65
2017-11-26T05:42:59.981Z,16.87
2017-11-26T05:45:25.804Z,24.70
2017-11-26T05:47:51.642Z,15.07
2017-11-26T05:50:17.512Z,20.50
2017-11-26T05:52:43.318Z,19.97
2017-11-26T05:55:09.100Z,16.20
2017-11-26T05:57:34.912Z,16.00
2017-11-26T06:00:00.735Z,15.93
2017-11-26T06:02:26.556Z,18.13
2017-11-26T06:04:52.363Z,15.97
2017-11-26T06:07:18.164Z,22.23
2017-11-26T06:09:43.983Z,13.90
2017-11-26T06:12:10.712Z,21.23
2017-11-26T06:14:36.521Z,14.60
2017-11-26T06:17:02.340Z,17.73
2017-11-26T06:19:28.361Z,16.03
2017-11-26T06:21:54.149Z,20.45
2017-11-26T06:24:19.940Z,24.80
2017-11-26T06:26:45.792Z,18.80
2017-11-26T06:29:11.580Z,17.80
2017-11-26T06:31:37.385Z,12.03
2017-11-26T06:34:03.589Z,16.97
2017-11-26T06:36:29.394Z,10.00
2017-11-26T06:38:55.188Z,12.27
2017-11-26T06:41:21.008Z,16.43
2017-11-26T06:43:46.849Z,22.90
2017-11-26T06:46:12.660Z,16.17
2017-11-26T06:48:38.769Z,17.53
2017-11-26T06:51:04.552Z,15.02
2017-11-26T06:53:30.347Z,19.00
2017-11-26T06:55:56.183Z,15.17
2017-11-26T06:58:21.995Z,25.57
2017-11-26T07:00:47.796Z,20.13
2017-11-26T07:03:13.622Z,27.20
2017-11-26T07:05:39.444Z,26.23
2017-11-26T07:08:05.250Z,28.63
2017-11-26T07:10:31.105Z,20.93
2017-11-26T07:12:56.911Z,21.43
2017-11-26T07:15:22.684Z,19.80
2017-11-26T07:17:48.490Z,18.90
2017-11-26T07:20:14.276Z,28.53
2017-11-26T07:22:40.092Z,25.20
2017-11-26T07:25:05.884Z,16.80
2017-11-26T07:27:31.687Z,22.13
2017-11-26T07:29:57.524Z,27.13
2017-11-26T07:32:23.341Z,24.13
2017-11-26T07:34:49.130Z,15.47
2017-11-26T07:37:14.952Z,26.73
2017-11-26T07:39:40.744Z,19.17
2017-11-26T07:42:06.538Z,21.93
2017-11-26T07:44:32.522Z,23.67
2017-11-26T07:46:58.327Z,36.53
2017-11-26T07:49:24.118Z,37.03
2017-11-26T07:51:49.934Z,27.63
2017-11-26T07:54:15.732Z,32.87
2017-11-26T07:56:41.527Z,24.47
2017-11-26T07:59:07.335Z,23.17
2017-11-26T08:01:33.128Z,41.73
2017-11-26T08:03:58.923Z,20.60
2017-11-26T08:06:24.712Z,40.67
2017-11-26T08:08:50.491Z,33.70
2017-11-26T08:11:16.326Z,50.40
2017-11-26T08:13:42.120Z,38.80
2017-11-26T08:16:07.929Z,38.57
2017-11-26T08:18:36.227Z,42.90
2017-11-26T08:21:02.021Z,29.23
2017-11-26T08:23:27.809Z,26.53
2017-11-26T08:25:53.997Z,37.03
2017-11-26T08:28:19.811Z,38.70
2017-11-26T08:30:45.615Z,47.87
2017-11-26T08:33:11.747Z,28.33
2017-11-26T08:35:38.287Z,46.08
2017-11-26T08:38:04.828Z,25.67
2017-11-26T08:40:31.391Z,36.23
2017-11-26T08:42:57.552Z,37.97
2017-11-26T08:45:23.416Z,38.88
2017-11-26T08:47:49.347Z,33.10
2017-11-26T08:50:15.336Z,27.77
2017-11-26T08:52:41.805Z,22.58
2017-11-26T08:55:08.170Z,27.35
2017-11-26T08:57:34.684Z,27.58
2017-11-26T09:00:01.640Z,26.15
2017-11-26T09:02:27.863Z,26.15
2017-11-26T09:04:53.872Z,20.15
2017-11-26T09:07:30.016Z,20.45
2017-11-26T09:09:56.629Z,26.20
2017-11-26T09:12:23.111Z,28.90
2017-11-26T09:14:49.682Z,24.23
2017-11-26T09:17:16.067Z,19.75
2017-11-26T09:19:42.411Z,25.42
2017-11-26T09:22:08.555Z,20.88
2017-11-26T09:24:34.452Z,24.83
2017-11-26T09:27:00.658Z,20.67
2017-11-26T09:29:26.471Z,22.98
2017-11-26T09:31:52.636Z,17.23
2017-11-26T09:34:19.022Z,39.20
2017-11-26T09:36:45.576Z,24.15
2017-11-26T09:39:11.914Z,22.80
2017-11-26T09:41:37.981Z,16.60
2017-11-26T09:44:03.878Z,18.15
2017-11-26T09:46:29.813Z,25.73
2017-11-26T09:48:56.302Z,26.87
2017-11-26T09:51:22.678Z,19.60
2017-11-26T09:53:48.882Z,19.37
2017-11-26T09:56:14.721Z,14.20
2017-11-26T09:58:41.906Z,18.40
2017-11-26T10:01:07.994Z,26.95
2017-11-26T10:03:33.825Z,18.27
2017-11-26T10:06:00.015Z,22.73
2017-11-26T10:08:26.535Z,7.80
2017-11-26T10:10:52.949Z,20.27
2017-11-26T10:13:18.814Z,10.00
2017-11-26T10:15:44.889Z,16.17
2017-11-26T10:18:11.368Z,17.37
2017-11-26T10:20:38.405Z,24.33
2017-11-26T10:23:05.045Z,18.48
2017-11-26T10:25:31.585Z,18.27
2017-11-26T10:27:58.061Z,16.55
2017-11-26T10:30:24.542Z,14.05
2017-11-26T10:32:51.140Z,13.45
2017-11-26T10:35:18.432Z,12.60
2017-11-26T10:37:46.841Z,22.67
2017-11-26T10:40:13.896Z,18.33
2017-11-26T10:42:43.512Z,12.65
2017-11-26T10:45:10.360Z,19.20
2017-11-26T10:47:37.103Z,22.30
2017-11-26T10:50:04.777Z,21.45
2017-11-26T10:52:30.732Z,22.73
2017-11-26T10:54:56.583Z,27.90
2017-11-26T10:57:22.405Z,19.33
2017-11-26T10:59:48.517Z,18.80
2017-11-26T11:02:14.397Z,9.27
2017-11-26T11:04:40.190Z,25.47
2017-11-26T11:07:06.093Z,18.77
2017-11-26T11:09:33.282Z,14.57
2017-11-26T11:11:59.794Z,14.00
2017-11-26T11:14:25.696Z,15.13
2017-11-26T11:16:51.669Z,11.57
2017-11-26T11:19:18.026Z,9.47
2017-11-26T11:21:44.236Z,14.50
2017-11-26T11:24:10.111Z,12.73
2017-11-26T11:26:35.895Z,16.07
2017-11-26T11:29:02.785Z,8.63
2017-11-26T11:31:29.605Z,10.82
2017-11-26T11:33:56.377Z,11.15
2017-11-26T11:36:23.417Z,12.52
2017-11-26T11:38:50.160Z,11.18
2017-11-26T11:41:16.365Z,11.82
2017-11-26T11:43:42.241Z,11.35
2017-11-26T11:46:08.386Z,8.40
2017-11-26T11:48:34.807Z,8.57
2017-11-26T11:51:01.677Z,8.80
2017-11-26T11:53:28.260Z,12.73
2017-11-26T11:55:55.156Z,10.52
2017-11-26T11:58:22.694Z,9.77
2017-11-26T12:00:49.640Z,13.02
2017-11-26T12:03:16.279Z,8.25
2017-11-26T12:05:42.961Z,9.07
2017-11-26T12:08:09.750Z,4.03
2017-11-26T12:10:36.016Z,5.87
2017-11-26T12:13:02.099Z,5.45
2017-11-26T12:15:28.167Z,8.15
2017-11-26T12:17:54.480Z,2.60
2017-11-26T12:20:21.068Z,10.52
2017-11-26T12:22:47.785Z,4.97
2017-11-26T12:25:14.845Z,5.12
2017-11-26T12:27:41.630Z,4.60
2017-11-26T12:30:08.427Z,5.47
2017-11-26T12:32:35.344Z,3.37
2017-11-26T12:35:02.182Z,24.25
2017-11-26T12:37:28.063Z,5.43
2017-11-26T12:39:54.091Z,8.13
2017-11-26T12:42:20.443Z,4.15
2017-11-26T12:44:47.108Z,7.47
2017-11-26T12:47:13.085Z,5.00
2017-11-26T12:49:39.743Z,3.00
2017-11-26T12:52:05.908Z,4.55
2017-11-26T12:54:32.348Z,2.92
2017-11-26T12:56:59.263Z,3.50
2017-11-26T12:59:25.131Z,8.40
2017-11-26T13:01:52.792Z,11.67
2017-11-26T13:04:19.284Z,22.77
2017-11-26T13:06:45.173Z,5.10
2017-11-26T13:09:11.706Z,2.13
2017-11-26T13:11:38.138Z,4.47
2017-11-26T13:14:04.075Z,3.70
2017-11-26T13:16:31.018Z,9.70
2017-11-26T13:18:56.903Z,6.22
2017-11-26T13:21:22.729Z,3.80
2017-11-26T13:23:48.647Z,6.03
2017-11-26T13:26:14.503Z,3.93
2017-11-26T13:28:40.367Z,5.17
2017-11-26T13:31:06.236Z,2.10
2017-11-26T13:33:32.102Z,29.57
2017-11-26T13:35:57.994Z,5.90
2017-11-26T13:38:23.937Z,3.87
2017-11-26T13:40:49.944Z,3.97
2017-11-26T13:43:15.898Z,5.93
2017-11-26T13:45:41.745Z,19.97
2017-11-26T13:48:07.572Z,7.67
2017-11-26T13:50:33.592Z,5.30
2017-11-26T13:53:00.394Z,12.82
2017-11-26T13:55:26.987Z,10.43
2017-11-26T13:57:53.047Z,5.65
2017-11-26T14:00:33.503Z,3.07
2017-11-26T14:03:16.974Z,4.72
2017-11-26T14:05:56.562Z,2.75
2017-11-26T14:08:38.615Z,3.92
2017-11-26T14:11:18.632Z,3.72
2017-11-26T14:13:57.646Z,6.93
2017-11-26T14:16:38.105Z,17.90
2017-11-26T14:19:19.031Z,2.95
2017-11-26T14:24:42.890Z,3.17
2017-11-26T14:27:10.709Z,4.12
2017-11-26T14:29:36.609Z,2.35
2017-11-26T14:32:03.585Z,6.10
2017-11-26T14:34:30.075Z,2.30
2017-11-26T14:36:57.213Z,2.90
2017-11-26T14:39:23.757Z,6.62
2017-11-26T14:41:49.743Z,6.82
2017-11-26T14:44:16.349Z,8.17
2017-11-26T14:46:56.559Z,19.65
2017-11-26T14:49:29.941Z,2.45
2017-11-26T14:52:11.106Z,13.00
2017-11-26T14:54:52.620Z,16.00
2017-11-26T14:57:24.646Z,8.90
2017-11-26T15:00:05.502Z,1.25
2017-11-26T15:05:26.314Z,3.55
2017-11-26T15:07:52.820Z,2.30
2017-11-26T15:10:18.675Z,6.53
2017-11-26T15:12:44.555Z,6.53
2017-11-26T15:15:10.932Z,3.33
2017-11-26T15:17:36.788Z,3.00
2017-11-26T15:20:03.593Z,5.70
2017-11-26T15:22:29.528Z,1.58
2017-11-26T15:24:55.385Z,9.17
2017-11-26T15:27:21.212Z,3.80
2017-11-26T15:29:48.530Z,8.03
2017-11-26T15:32:14.410Z,4.07
2017-11-26T15:34:40.692Z,1.30
2017-11-26T15:37:06.536Z,2.37
2017-11-26T15:39:32.863Z,2.53
2017-11-26T15:41:59.693Z,2.72
2017-11-26T15:44:26.492Z,6.60
2017-11-26T15:46:52.753Z,6.87
2017-11-26T15:49:19.210Z,5.87
2017-11-26T15:51:46.033Z,3.42
2017-11-26T15:54:12.696Z,4.00
2017-11-26T15:56:39.409Z,3.37
2017-11-26T15:59:05.316Z,7.25
2017-11-26T16:01:32.084Z,9.37
2017-11-26T16:03:58.037Z,5.65
2017-11-26T16:06:23.902Z,1.60
2017-11-26T16:08:51.112Z,2.43
2017-11-26T16:11:18.065Z,2.58
2017-11-26T16:13:45.042Z,4.68
2017-11-26T16:16:11.398Z,3.10
2017-11-26T16:18:37.918Z,11.35
2017-11-26T16:21:03.829Z,2.95
2017-11-26T16:23:29.666Z,1.57
2017-11-26T16:25:55.765Z,3.83
2017-11-26T16:28:22.661Z,3.67
2017-11-26T16:30:48.474Z,3.97
2017-11-26T16:33:15.420Z,6.20
2017-11-26T16:35:42.262Z,7.25
2017-11-26T16:38:08.127Z,4.55
2017-11-26T16:40:34.220Z,3.73
2017-11-26T16:43:00.921Z,2.95
2017-11-26T16:45:27.641Z,1.62
2017-11-26T16:47:54.464Z,4.70
2017-11-26T16:50:21.364Z,1.65
2017-11-26T16:52:48.045Z,8.32
2017-11-26T16:55:14.158Z,3.58
2017-11-26T16:57:40.564Z,5.03
2017-11-26T17:00:06.669Z,3.95
2017-11-26T17:02:32.674Z,5.57
2017-11-26T17:04:58.568Z,1.12
2017-11-26T17:07:24.830Z,1.03
2017-11-26T17:09:51.431Z,3.70
2017-11-26T17:12:18.532Z,1.67
2017-11-26T17:14:45.145Z,2.58
2017-11-26T17:17:11.905Z,11.50
2017-11-26T17:19:38.440Z,2.33
2017-11-26T17:22:04.638Z,3.05
2017-11-26T17:24:31.318Z,4.75
2017-11-26T17:26:57.729Z,2.70
2017-11-26T17:29:24.314Z,4.45
2017-11-26T17:31:50.399Z,2.08
2017-11-26T17:34:16.335Z,6.40
2017-11-26T17:36:42.169Z,16.53
2017-11-26T17:39:08.337Z,4.93
2017-11-26T17:41:34.909Z,2.08
2017-11-26T17:44:01.009Z,2.05
2017-11-26T17:46:26.983Z,6.57
2017-11-26T17:48:52.814Z,1.37
2017-11-26T17:51:18.948Z,5.87
2017-11-26T17:53:45.466Z,23.48
2017-11-26T17:56:11.575Z,1.90
2017-11-26T17:58:37.497Z,3.50
2017-11-26T18:01:03.468Z,6.07
2017-11-26T18:03:29.283Z,3.47
2017-11-26T18:05:55.769Z,4.30
2017-11-26T18:08:22.261Z,2.37
2017-11-26T18:10:48.344Z,4.70
2017-11-26T18:13:14.220Z,1.87
2017-11-26T18:15:40.038Z,5.70
2017-11-26T18:18:06.328Z,2.63
2017-11-26T18:20:33.001Z,3.62
2017-11-26T18:22:59.424Z,6.53
2017-11-26T18:25:26.085Z,1.83
2017-11-26T18:27:52.645Z,2.85
2017-11-26T18:30:19.127Z,4.10
2017-11-26T18:32:45.046Z,3.30
2017-11-26T18:35:10.968Z,6.77
2017-11-26T18:37:36.805Z,8.73
2017-11-26T18:40:02.652Z,1.43
2017-11-26T18:42:29.438Z,1.00
2017-11-26T18:44:55.806Z,12.20
2017-11-26T18:47:22.924Z,1.58
2017-11-26T18:49:49.957Z,4.90
2017-11-26T18:52:16.729Z,2.60
2017-11-26T18:54:42.781Z,13.85
2017-11-26T18:57:08.660Z,1.10
2017-11-26T18:59:35.335Z,6.33
2017-11-26T19:02:01.373Z,3.45
2017-11-26T19:04:28.058Z,1.80
2017-11-26T19:06:54.044Z,2.70
2017-11-26T19:09:20.878Z,5.37
2017-11-26T19:11:46.778Z,3.03
2017-11-26T19:14:13.183Z,7.10
2017-11-26T19:16:39.092Z,4.25
2017-11-26T19:19:05.859Z,9.53
2017-11-26T19:21:31.727Z,11.77
2017-11-26T19:23:57.547Z,2.10
2017-11-26T19:26:24.740Z,2.13
2017-11-26T19:28:51.356Z,6.65
2017-11-26T19:31:17.194Z,4.43
2017-11-26T19:33:43.152Z,6.00
2017-11-26T19:36:08.969Z,1.60
2017-11-26T19:38:34.828Z,1.90
2017-11-26T19:41:00.668Z,5.80
2017-11-26T19:43:26.773Z,2.10
2017-11-26T19:45:52.748Z,1.62
2017-11-26T19:48:18.726Z,2.43
2017-11-26T19:50:44.881Z,3.58
2017-11-26T19:53:10.896Z,1.90
2017-11-26T19:55:36.805Z,2.15
2017-11-26T19:58:02.642Z,5.87
2017-11-26T20:00:28.593Z,1.80
2017-11-26T20:02:54.573Z,1.60
2017-11-26T20:05:20.389Z,1.37
2017-11-26T20:07:46.464Z,1.63
2017-11-26T20:10:12.277Z,1.62
2017-11-26T20:12:38.088Z,2.37
2017-11-26T20:15:03.906Z,4.17
2017-11-26T20:17:29.781Z,1.73
2017-11-26T20:19:55.905Z,4.87
2017-11-26T20:22:21.890Z,1.10
2017-11-26T20:24:47.738Z,2.37
2017-11-26T20:27:13.692Z,2.03
2017-11-26T20:29:39.481Z,5.43
2017-11-26T20:32:05.422Z,1.83
2017-11-26T20:34:31.231Z,2.30
2017-11-26T20:36:57.017Z,6.30
2017-11-26T20:39:22.805Z,4.80
2017-11-26T20:41:49.077Z,2.53
2017-11-26T20:44:14.881Z,2.08
2017-11-26T20:46:40.679Z,4.73
2017-11-26T20:49:06.740Z,2.73
2017-11-26T20:51:32.596Z,3.67
2017-11-26T20:53:58.962Z,9.70
2017-11-26T20:56:24.827Z,10.98
2017-11-26T20:58:50.617Z,5.20
2017-11-26T21:01:16.518Z,5.53
2017-11-26T21:03:42.308Z,19.87
2017-11-26T21:06:08.387Z,5.83
2017-11-26T21:08:34.196Z,5.18
2017-11-26T21:11:00.397Z,3.97
2017-11-26T21:13:26.200Z,3.20
2017-11-26T21:15:52.247Z,1.80
2017-11-26T21:18:18.128Z,6.82
2017-11-26T21:20:43.920Z,5.30
2017-11-26T21:23:09.713Z,1.30
2017-11-26T21:25:35.545Z,10.80
2017-11-26T21:28:01.353Z,2.70
2017-11-26T21:30:27.927Z,2.53
2017-11-26T21:32:53.803Z,5.03
2017-11-26T21:35:19.700Z,8.27
2017-11-26T21:37:45.487Z,5.70
2017-11-26T21:40:11.293Z,3.07
2017-11-26T21:42:37.234Z,2.83
2017-11-26T21:45:03.045Z,7.70
2017-11-26T21:47:29.448Z,4.30
2017-11-26T21:49:55.265Z,4.30
2017-11-26T21:52:21.471Z,3.27
2017-11-26T21:54:47.297Z,6.97
2017-11-26T21:57:13.689Z,3.37
2017-11-26T21:59:39.484Z,10.25
2017-11-26T22:02:05.521Z,6.70
2017-11-26T22:04:31.322Z,6.28
2017-11-26T22:06:57.108Z,4.37
2017-11-26T22:09:23.048Z,5.30
2017-11-26T22:11:48.843Z,6.40
2017-11-26T22:14:14.645Z,8.13
2017-11-26T22:16:40.469Z,1.93
2017-11-26T22:19:06.346Z,6.27
2017-11-26T22:21:32.148Z,2.83
2017-11-26T22:23:58.657Z,6.47
2017-11-26T22:26:24.463Z,3.83
2017-11-26T22:28:50.603Z,4.50
2017-11-26T22:31:16.737Z,3.35
2017-11-26T22:33:42.945Z,16.00
2017-11-26T22:36:08.747Z,4.15
2017-11-26T22:38:35.011Z,3.67
2017-11-26T22:41:00.844Z,8.35
2017-11-26T22:43:27.014Z,8.30
2017-11-26T22:45:52.874Z,4.57
2017-11-26T22:48:18.695Z,3.73
2017-11-26T22:50:44.657Z,4.30
2017-11-26T22:53:10.452Z,8.20
2017-11-26T22:55:36.276Z,6.93
2017-11-26T22:58:02.106Z,4.80
2017-11-26T23:00:28.093Z,3.67
2017-11-26T23:02:53.971Z,9.07
2017-11-26T23:05:19.774Z,3.93
2017-11-26T23:07:45.577Z,4.37
2017-11-26T23:10:11.402Z,3.67
2017-11-26T23:12:37.704Z,4.73
2017-11-26T23:15:03.498Z,3.80
2017-11-26T23:17:29.646Z,3.43
2017-11-26T23:19:55.416Z,2.47
2017-11-26T23:22:21.344Z,2.90
2017-11-26T23:24:47.492Z,2.07
2017-11-26T23:27:13.290Z,3.33
2017-11-26T23:29:39.090Z,10.43
2017-11-26T23:32:04.911Z,7.00
2017-11-26T23:34:31.096Z,3.73
2017-11-26T23:36:56.889Z,14.80
2017-11-26T23:39:22.836Z,1.77
2017-11-26T23:41:48.664Z,1.53
2017-11-26T23:44:14.621Z,2.30
2017-11-26T23:46:40.450Z,9.60
2017-11-26T23:49:06.592Z,2.90
2017-11-26T23:51:32.413Z,10.55
2017-11-26T23:53:58.664Z,4.93
2017-11-26T23:56:24.621Z,4.90
2017-11-26T23:58:50.777Z,5.10
